Time,TemperatureF,DewpointF,PressureIn,WindDirection,WindDirectionDegrees,WindSpeedMPH,WindSpeedGustMPH,Humidity,HourlyPrecipIn,Conditions,Clouds,dailyrainin,SolarRadiationWatts/m^2,SoftwareType,DateUTC
2013-06-28 00:01:00,72.0,49.0,-100.00,North,-999,-999.0,3.0,44,0.00,,,-99.99,0.000000,,2013-06-28 06:01:00,
2013-06-28 00:11:00,72.0,49.0,-100.00,North,-999,-999.0,3.0,44,0.00,,,-99.99,0.000000,,2013-06-28 06:11:00,
2013-06-28 00:22:00,73.0,48.0,-100.00,North,-999,-999.0,4.0,42,0.00,,,-99.99,0.000000,,2013-06-28 06:22:00,
2013-06-28 00:42:00,72.0,48.0,-100.00,North,-999,-999.0,4.0,43,0.00,,,-99.99,0.000000,,2013-06-28 06:42:00,
2013-06-28 01:11:00,70.0,49.0,-100.00,North,-999,-999.0,3.0,46,0.00,,,-99.99,0.000000,,2013-06-28 07:11:00,
2013-06-28 01:22:00,70.0,49.0,-100.00,North,-999,-999.0,3.0,46,0.00,,,-99.99,0.000000,,2013-06-28 07:22:00,
2013-06-28 01:42:00,70.0,44.0,-100.00,North,-999,-999.0,4.0,40,0.00,,,-99.99,0.000000,,2013-06-28 07:42:00,
2013-06-28 02:11:00,68.0,47.0,-100.00,North,-999,-999.0,3.0,47,0.00,,,-99.99,0.000000,,2013-06-28 08:11:00,
2013-06-28 02:21:00,68.0,47.0,-100.00,North,-999,-999.0,3.0,47,0.00,,,-99.99,0.000000,,2013-06-28 08:21:00,
2013-06-28 02:33:00,68.0,47.0,-100.00,North,-999,-999.0,3.0,47,0.00,,,-99.99,0.000000,,2013-06-28 08:33:00,
2013-06-28 02:43:00,68.0,47.0,-100.00,North,-999,-999.0,3.0,47,0.00,,,-99.99,0.000000,,2013-06-28 08:43:00,
2013-06-28 03:22:00,66.0,48.0,-100.00,North,-999,-999.0,2.0,53,0.00,,,-99.99,0.000000,,2013-06-28 09:22:00,
2013-06-28 04:11:00,68.0,46.0,-100.00,North,-999,-999.0,7.0,45,0.00,,,-99.99,0.000000,,2013-06-28 10:11:00,
2013-06-28 04:22:00,68.0,46.0,-100.00,North,-999,-999.0,5.0,46,0.00,,,-99.99,0.000000,,2013-06-28 10:22:00,
2013-06-28 04:42:00,67.0,45.0,-100.00,North,-999,-999.0,4.0,44,0.00,,,-99.99,0.000000,,2013-06-28 10:42:00,
2013-06-28 05:11:00,66.0,44.0,-100.00,North,-999,-999.0,5.0,46,0.00,,,-99.99,0.000000,,2013-06-28 11:11:00,
2013-06-28 05:21:00,65.0,46.0,-100.00,North,-999,-999.0,3.0,50,0.00,,,-99.99,0.000000,,2013-06-28 11:21:00,
2013-06-28 05:42:00,64.0,45.0,-100.00,North,-999,-999.0,4.0,50,0.00,,,-99.99,0.000000,,2013-06-28 11:42:00,
2013-06-28 06:12:00,66.0,44.0,-100.00,North,-999,-999.0,5.0,45,0.00,,,-99.99,2.000000,,2013-06-28 12:12:00,
2013-06-28 06:22:00,65.0,45.0,-100.00,North,-999,-999.0,5.0,48,0.00,,,-99.99,4.000000,,2013-06-28 12:22:00,
2013-06-28 06:43:00,65.0,45.0,-100.00,North,-999,-999.0,4.0,49,0.00,,,-99.99,12.000000,,2013-06-28 12:43:00,
2013-06-28 06:50:00,64.0,49.0,-100.00,North,-999,-999.0,3.0,58,0.00,,,-99.99,26.000000,,2013-06-28 12:50:00,
2013-06-28 07:11:00,64.0,47.0,-100.00,North,-999,-999.0,4.0,55,0.00,,,-99.99,34.000000,,2013-06-28 13:11:00,
2013-06-28 07:43:00,64.0,49.0,-100.00,North,-999,-999.0,3.0,58,0.00,,,-99.99,26.000000,,2013-06-28 13:43:00,
2013-06-28 08:44:00,74.0,59.0,-100.00,North,-999,-999.0,2.0,61,0.00,,,-99.99,336.000000,,2013-06-28 14:44:00,
2013-06-28 09:11:00,80.0,52.0,-100.00,North,-999,-999.0,3.0,37,0.00,,,-99.99,482.000000,,2013-06-28 15:11:00,
2013-06-28 10:11:00,85.0,49.0,-100.00,North,-999,-999.0,4.0,29,0.00,,,-99.99,738.000000,,2013-06-28 16:11:00,
2013-06-28 10:24:00,84.0,51.0,-100.00,North,-999,-999.0,4.0,32,0.00,,,-99.99,770.000000,,2013-06-28 16:24:00,
2013-06-28 11:11:00,88.0,44.0,-100.00,North,-999,-999.0,5.0,22,0.00,,,-99.99,921.000000,,2013-06-28 17:11:00,
2013-06-28 11:22:00,88.0,45.0,-100.00,North,-999,-999.0,5.0,22,0.00,,,-99.99,948.000000,,2013-06-28 17:22:00,
2013-06-28 11:50:00,92.0,46.0,-100.00,North,-999,-999.0,7.0,21,0.00,,,-99.99,1065.000000,,2013-06-28 17:50:00,
2013-06-28 12:22:00,92.0,46.0,-100.00,North,-999,-999.0,7.0,21,0.00,,,-99.99,1065.000000,,2013-06-28 18:22:00,
2013-06-28 12:33:00,92.0,46.0,-100.00,North,-999,-999.0,7.0,21,0.00,,,-99.99,1065.000000,,2013-06-28 18:33:00,
2013-06-28 12:43:00,92.0,46.0,-100.00,North,-999,-999.0,7.0,21,0.00,,,-99.99,1065.000000,,2013-06-28 18:43:00,
2013-06-28 13:43:00,95.0,50.0,-100.00,North,-999,-999.0,10.0,22,0.00,,,-99.99,1164.000000,,2013-06-28 19:43:00,
2013-06-28 14:43:00,98.0,46.0,-100.00,North,-999,-999.0,12.0,17,0.00,,,-99.99,1162.000000,,2013-06-28 20:43:00,
2013-06-28 14:52:00,98.0,46.0,-100.00,North,-999,-999.0,12.0,17,0.00,,,-99.99,1162.000000,,2013-06-28 20:52:00,
2013-06-28 16:42:00,96.0,39.0,-100.00,North,-999,-999.0,13.0,14,0.00,,,-99.99,394.000000,,2013-06-28 22:42:00,
2013-06-28 16:50:00,95.0,41.0,-100.00,North,-999,-999.0,12.0,16,0.00,,,-99.99,527.000000,,2013-06-28 22:50:00,
2013-06-28 17:11:00,97.0,40.0,-100.00,North,-999,-999.0,11.0,14,0.00,,,-99.99,486.000000,,2013-06-28 23:11:00,
2013-06-28 17:23:00,95.0,41.0,-100.00,North,-999,-999.0,12.0,16,0.00,,,-99.99,527.000000,,2013-06-28 23:23:00,
2013-06-28 17:33:00,95.0,41.0,-100.00,North,-999,-999.0,12.0,16,0.00,,,-99.99,527.000000,,2013-06-28 23:33:00,
2013-06-28 17:43:00,95.0,41.0,-100.00,North,-999,-999.0,12.0,16,0.00,,,-99.99,527.000000,,2013-06-28 23:43:00,
2013-06-28 18:33:00,94.0,42.0,-100.00,North,-999,-999.0,14.0,17,0.00,,,-99.99,271.000000,,2013-06-29 00:33:00,
2013-06-28 18:52:00,92.0,47.0,-100.00,North,-999,-999.0,8.0,22,0.00,,,-99.99,240.000000,,2013-06-29 00:52:00,
2013-06-28 19:11:00,90.0,45.0,-100.00,North,-999,-999.0,6.0,21,0.00,,,-99.99,150.000000,,2013-06-29 01:11:00,
2013-06-28 19:31:00,88.0,45.0,-100.00,North,-999,-999.0,5.0,23,0.00,,,-99.99,113.000000,,2013-06-29 01:31:00,
2013-06-28 19:42:00,86.0,49.0,-100.00,North,-999,-999.0,4.0,28,0.00,,,-99.99,92.000000,,2013-06-29 01:42:00,
2013-06-28 20:10:00,88.0,39.0,-100.00,North,-999,-999.0,19.0,18,0.00,,,-99.99,23.000000,,2013-06-29 02:10:00,
2013-06-28 20:21:00,88.0,39.0,-100.00,North,-999,-999.0,25.0,18,0.00,,,-99.99,20.000000,,2013-06-29 02:21:00,
2013-06-28 20:31:00,86.0,41.0,-100.00,North,-999,-999.0,21.0,20,0.00,,,-99.99,22.000000,,2013-06-29 02:31:00,
2013-06-28 20:41:00,86.0,40.0,-100.00,North,-999,-999.0,21.0,20,0.00,,,-99.99,18.000000,,2013-06-29 02:41:00,
2013-06-28 20:51:00,86.0,39.0,-100.00,North,-999,-999.0,19.0,19,0.00,,,-99.99,12.000000,,2013-06-29 02:51:00,
2013-06-28 21:11:00,86.0,39.0,-100.00,North,-999,-999.0,11.0,19,0.00,,,-99.99,3.000000,,2013-06-29 03:11:00,
2013-06-28 21:21:00,85.0,41.0,-100.00,North,-999,-999.0,8.0,21,0.00,,,-99.99,1.000000,,2013-06-29 03:21:00,
2013-06-28 21:31:00,84.0,40.0,-100.00,North,-999,-999.0,5.0,21,0.00,,,-99.99,0.000000,,2013-06-29 03:31:00,
2013-06-28 21:50:00,84.0,41.0,-100.00,North,-999,-999.0,10.0,22,0.00,,,-99.99,0.000000,,2013-06-29 03:50:00,
2013-06-28 21:51:00,85.0,38.0,-100.00,North,-999,-999.0,12.0,19,0.00,,,-99.99,0.000000,,2013-06-29 03:51:00,
2013-06-28 22:01:00,84.0,40.0,-100.00,North,-999,-999.0,10.0,21,0.00,,,-99.99,0.000000,,2013-06-29 04:01:00,
2013-06-28 22:10:00,84.0,41.0,-100.00,North,-999,-999.0,10.0,22,0.00,,,-99.99,0.000000,,2013-06-29 04:10:00,
2013-06-28 22:22:00,84.0,41.0,-100.00,North,-999,-999.0,10.0,22,0.00,,,-99.99,0.000000,,2013-06-29 04:22:00,
2013-06-28 22:31:00,84.0,41.0,-100.00,North,-999,-999.0,10.0,22,0.00,,,-99.99,0.000000,,2013-06-29 04:31:00,
2013-06-28 22:41:00,84.0,41.0,-100.00,North,-999,-999.0,10.0,22,0.00,,,-99.99,0.000000,,2013-06-29 04:41:00,
2013-06-28 23:21:00,83.0,40.0,-100.00,North,-999,-999.0,15.0,22,0.00,,,-99.99,0.000000,,2013-06-29 05:21:00,
2013-06-28 23:51:00,83.0,40.0,-100.00,North,-999,-999.0,17.0,22,0.00,,,-99.99,0.000000,,2013-06-29 05:51:00,